Pine Bluff, AR (71601)

9:47 PM CST on January 19, 2017 (GMT -0600)
Pine Bluff | | Change Station

Elev 253 ft 34.19 °N, 92.03 °W | Updated 1 second ago

Overcast
Overcast
55.6 °F
Feels Like 55.6 °F
N
0.0
Wind Variable Wind from NW

Today
High -- | Low -- °F
--% Chance of Precip.
Yesterday
High -- | Low -- °F
Precip. -- in
Pressure 29.73 in
Visibility 9.0 miles
Clouds Overcast 500 ft
Dew Point 55 °F
Humidity 97%
Rainfall 0.04 in
Snow Depth Not available.
7:12 AM 5:25 PM
Waning Gibbous, 48% visible
SPECI KPBF 200328Z AUTO 21005KT 9SM OVC005 13/13 A2973 RMK AO2 T01280128
Pressure 29.73 in
Visibility 9.0 miles
Clouds Overcast 500 ft
Dew Point 55 °F
Humidity 97%
Rainfall 0.04 in
Snow Depth Not available.
7:12 AM 5:25 PM
Waning Gibbous, 48% visible
SPECI KPBF 200328Z AUTO 21005KT 9SM OVC005 13/13 A2973 RMK AO2 T01280128

Get Your Daily Forecast Email!

Thanks for signing up!

Be on the lookout for a verification email in your inbox.

You'll start receiving the daily forecast at 8 AM.

×

10-Day Weather Forecast

Almanac

Astronomy

Jan. 19, 2017 Rise Set
Actual Time
Civil Twilight
Nautical Twilight
Astronomical Twilight
Moon
Length of Visible Light
Length of Day
Tomorrow will be .
, % of the Moon is Illuminated

Today's Extremes

State Highs State Lows

Community

WunderPhotos

Upload Photos

1,962,540 photos uploaded!

WunderBlog® & News

Nearby

Air Quality

  Air Quality AQ Index Pollutant
Not available.

Snow Depth

Station Depth Elevation

Earthquake Activity

City Distance Mag. Time & Date
Minimum magnitude displayed is 2.5.

Coastal Water Temperatures

Place Temperature

Stations

Nearby Weather Stations

Station Location Temp. Windchill Dew Point Humidity Wind Precip. Elev Updated Type
                   

Watches & Warnings

There are currently no watches in effect.